sensor_id;sensor_type;location;lat;lon;timestamp;pressure;altitude;pressure_sealevel;temperature;humidity
24996;BME280;13016;52.162;21.034;2023-08-06T00:01:37;99293.98;;;24.86;70.00
24996;BME280;13016;52.162;21.034;2023-08-06T00:07:37;99292.14;;;24.86;70.02
24996;BME280;13016;52.162;21.034;2023-08-06T00:13:38;99280.12;;;24.87;70.02
24996;BME280;13016;52.162;21.034;2023-08-06T00:19:38;99288.36;;;24.83;70.04
24996;BME280;13016;52.162;21.034;2023-08-06T00:25:38;99309.48;;;24.90;69.94
24996;BME280;13016;52.162;21.034;2023-08-06T00:31:38;99295.98;;;24.79;69.96
24996;BME280;13016;52.162;21.034;2023-08-06T00:37:39;99278.62;;;24.71;70.32
24996;BME280;13016;52.162;21.034;2023-08-06T00:43:39;99270.10;;;24.75;70.47
24996;BME280;13016;52.162;21.034;2023-08-06T00:49:39;99261.95;;;24.78;70.51
24996;BME280;13016;52.162;21.034;2023-08-06T00:55:40;99240.26;;;24.69;70.34
24996;BME280;13016;52.162;21.034;2023-08-06T01:01:41;99224.28;;;24.67;70.25
24996;BME280;13016;52.162;21.034;2023-08-06T01:13:50;99199.89;;;24.67;70.15
24996;BME280;13016;52.162;21.034;2023-08-06T01:19:53;99176.95;;;24.65;70.25
24996;BME280;13016;52.162;21.034;2023-08-06T01:26:15;99144.55;;;24.49;70.58
24996;BME280;13016;52.162;21.034;2023-08-06T01:32:20;99103.48;;;24.41;70.64
24996;BME280;13016;52.162;21.034;2023-08-06T01:38:21;99081.06;;;24.37;70.65
24996;BME280;13016;52.162;21.034;2023-08-06T01:44:21;99061.34;;;24.27;71.13
24996;BME280;13016;52.162;21.034;2023-08-06T01:50:22;99047.16;;;24.25;71.26
24996;BME280;13016;52.162;21.034;2023-08-06T01:56:22;99042.20;;;24.16;71.58
24996;BME280;13016;52.162;21.034;2023-08-06T02:02:22;99046.73;;;24.13;71.56
24996;BME280;13016;52.162;21.034;2023-08-06T02:08:22;99043.69;;;24.20;71.66
24996;BME280;13016;52.162;21.034;2023-08-06T02:14:22;99035.08;;;24.18;71.74
24996;BME280;13016;52.162;21.034;2023-08-06T02:20:23;99023.67;;;24.13;71.78
24996;BME280;13016;52.162;21.034;2023-08-06T02:26:23;99005.24;;;24.12;71.83
24996;BME280;13016;52.162;21.034;2023-08-06T02:32:24;99003.41;;;24.15;72.06
24996;BME280;13016;52.162;21.034;2023-08-06T02:38:24;99010.08;;;24.23;72.05
24996;BME280;13016;52.162;21.034;2023-08-06T02:44:27;99002.79;;;24.28;72.03
24996;BME280;13016;52.162;21.034;2023-08-06T02:50:27;98996.90;;;24.37;72.07
24996;BME280;13016;52.162;21.034;2023-08-06T02:56:27;98992.55;;;24.41;71.86
24996;BME280;13016;52.162;21.034;2023-08-06T03:02:28;98980.25;;;24.31;71.81
24996;BME280;13016;52.162;21.034;2023-08-06T03:08:28;98962.19;;;24.34;72.18
24996;BME280;13016;52.162;21.034;2023-08-06T03:14:28;98948.14;;;24.33;72.17
24996;BME280;13016;52.162;21.034;2023-08-06T03:20:28;98924.66;;;24.37;72.08
24996;BME280;13016;52.162;21.034;2023-08-06T03:26:29;98924.64;;;24.42;72.30
24996;BME280;13016;52.162;21.034;2023-08-06T03:32:29;98920.06;;;24.45;72.23
24996;BME280;13016;52.162;21.034;2023-08-06T03:38:29;98902.58;;;24.39;72.48
24996;BME280;13016;52.162;21.034;2023-08-06T03:44:29;98886.48;;;24.38;72.62
24996;BME280;13016;52.162;21.034;2023-08-06T03:50:29;98875.98;;;24.42;72.72
24996;BME280;13016;52.162;21.034;2023-08-06T03:56:30;98861.64;;;24.49;72.48
24996;BME280;13016;52.162;21.034;2023-08-06T04:02:30;98853.43;;;24.57;72.35
24996;BME280;13016;52.162;21.034;2023-08-06T04:08:30;98839.02;;;24.55;72.50
24996;BME280;13016;52.162;21.034;2023-08-06T04:14:30;98824.77;;;24.65;72.41
24996;BME280;13016;52.162;21.034;2023-08-06T04:20:31;98813.52;;;24.68;72.27
24996;BME280;13016;52.162;21.034;2023-08-06T04:26:31;98814.20;;;24.73;72.33
24996;BME280;13016;52.162;21.034;2023-08-06T04:32:31;98807.71;;;24.89;72.03
24996;BME280;13016;52.162;21.034;2023-08-06T04:38:31;98788.80;;;24.95;71.83
24996;BME280;13016;52.162;21.034;2023-08-06T04:44:32;98776.91;;;24.99;71.65
24996;BME280;13016;52.162;21.034;2023-08-06T04:50:32;98773.02;;;25.16;71.30
24996;BME280;13016;52.162;21.034;2023-08-06T04:56:32;98770.09;;;25.29;70.71
24996;BME280;13016;52.162;21.034;2023-08-06T05:02:32;98765.54;;;25.43;70.37
24996;BME280;13016;52.162;21.034;2023-08-06T05:08:32;98756.66;;;25.58;69.92
24996;BME280;13016;52.162;21.034;2023-08-06T05:14:33;98745.29;;;25.71;69.10
24996;BME280;13016;52.162;21.034;2023-08-06T05:20:36;98739.77;;;25.93;68.54
24996;BME280;13016;52.162;21.034;2023-08-06T05:26:36;98733.20;;;26.18;67.33
24996;BME280;13016;52.162;21.034;2023-08-06T05:32:36;98727.20;;;26.46;66.50
24996;BME280;13016;52.162;21.034;2023-08-06T05:38:37;98719.16;;;26.85;65.03
24996;BME280;13016;52.162;21.034;2023-08-06T05:44:37;98709.86;;;27.44;63.00
24996;BME280;13016;52.162;21.034;2023-08-06T05:50:37;98704.27;;;28.01;60.43
24996;BME280;13016;52.162;21.034;2023-08-06T05:56:37;98694.33;;;28.73;59.56
24996;BME280;13016;52.162;21.034;2023-08-06T06:02:37;98692.98;;;29.40;55.82
24996;BME280;13016;52.162;21.034;2023-08-06T06:08:38;98700.51;;;29.99;54.64
24996;BME280;13016;52.162;21.034;2023-08-06T06:14:38;98698.26;;;30.55;52.50
24996;BME280;13016;52.162;21.034;2023-08-06T06:20:38;98679.63;;;31.05;50.47
24996;BME280;13016;52.162;21.034;2023-08-06T06:26:39;98676.23;;;31.33;48.49
24996;BME280;13016;52.162;21.034;2023-08-06T06:32:39;98669.39;;;31.52;48.03
24996;BME280;13016;52.162;21.034;2023-08-06T06:38:39;98662.86;;;31.67;46.97
24996;BME280;13016;52.162;21.034;2023-08-06T06:44:39;98654.95;;;31.89;45.77
24996;BME280;13016;52.162;21.034;2023-08-06T06:50:39;98646.95;;;32.07;45.82
24996;BME280;13016;52.162;21.034;2023-08-06T06:56:41;98643.05;;;32.44;45.40
24996;BME280;13016;52.162;21.034;2023-08-06T07:02:41;98646.08;;;32.70;44.72
24996;BME280;13016;52.162;21.034;2023-08-06T07:08:42;98645.75;;;32.72;43.94
24996;BME280;13016;52.162;21.034;2023-08-06T07:14:42;98644.61;;;32.39;44.31
24996;BME280;13016;52.162;21.034;2023-08-06T07:20:48;98641.70;;;32.57;44.78
24996;BME280;13016;52.162;21.034;2023-08-06T07:26:48;98632.80;;;32.49;44.47
24996;BME280;13016;52.162;21.034;2023-08-06T07:32:48;98632.59;;;32.57;44.45
24996;BME280;13016;52.162;21.034;2023-08-06T07:38:48;98629.73;;;32.78;44.19
24996;BME280;13016;52.162;21.034;2023-08-06T07:44:54;98628.22;;;32.77;43.98
24996;BME280;13016;52.162;21.034;2023-08-06T07:50:55;98629.85;;;32.87;43.87
24996;BME280;13016;52.162;21.034;2023-08-06T07:56:55;98619.85;;;32.94;43.79
24996;BME280;13016;52.162;21.034;2023-08-06T08:02:56;98617.02;;;33.37;43.14
24996;BME280;13016;52.162;21.034;2023-08-06T08:08:56;98606.45;;;33.49;42.24
24996;BME280;13016;52.162;21.034;2023-08-06T08:14:56;98601.91;;;33.67;42.53
24996;BME280;13016;52.162;21.034;2023-08-06T08:20:56;98598.52;;;33.81;42.33
24996;BME280;13016;52.162;21.034;2023-08-06T08:26:57;98592.80;;;34.34;42.15
24996;BME280;13016;52.162;21.034;2023-08-06T08:32:57;98589.30;;;34.67;40.31
24996;BME280;13016;52.162;21.034;2023-08-06T08:38:57;98584.33;;;34.55;40.59
24996;BME280;13016;52.162;21.034;2023-08-06T08:44:57;98581.95;;;34.32;40.58
24996;BME280;13016;52.162;21.034;2023-08-06T08:50:58;98576.48;;;34.28;41.47
24996;BME280;13016;52.162;21.034;2023-08-06T08:56:59;98568.90;;;34.74;41.57
24996;BME280;13016;52.162;21.034;2023-08-06T09:03:00;98563.76;;;35.14;39.75
24996;BME280;13016;52.162;21.034;2023-08-06T09:09:12;98552.20;;;34.55;39.83
24996;BME280;13016;52.162;21.034;2023-08-06T09:15:14;98548.94;;;34.51;40.55
24996;BME280;13016;52.162;21.034;2023-08-06T09:21:15;98538.92;;;34.63;40.39
24996;BME280;13016;52.162;21.034;2023-08-06T09:27:16;98536.53;;;34.76;39.72
24996;BME280;13016;52.162;21.034;2023-08-06T09:33:19;98530.64;;;34.41;39.93
24996;BME280;13016;52.162;21.034;2023-08-06T09:39:27;98524.41;;;34.09;40.76
24996;BME280;13016;52.162;21.034;2023-08-06T09:45:31;98519.65;;;34.49;40.88
24996;BME280;13016;52.162;21.034;2023-08-06T09:51:32;98512.23;;;34.63;40.24
24996;BME280;13016;52.162;21.034;2023-08-06T09:57:32;98510.28;;;34.56;39.98
24996;BME280;13016;52.162;21.034;2023-08-06T10:03:33;98498.84;;;34.31;39.91
24996;BME280;13016;52.162;21.034;2023-08-06T10:09:34;98492.64;;;33.89;39.85
24996;BME280;13016;52.162;21.034;2023-08-06T10:15:34;98483.54;;;33.63;40.69
24996;BME280;13016;52.162;21.034;2023-08-06T10:21:34;98473.22;;;33.58;40.01
24996;BME280;13016;52.162;21.034;2023-08-06T10:27:36;98464.84;;;33.62;40.15
24996;BME280;13016;52.162;21.034;2023-08-06T10:33:43;98462.77;;;33.66;39.81
24996;BME280;13016;52.162;21.034;2023-08-06T10:39:51;98446.50;;;33.65;39.36
24996;BME280;13016;52.162;21.034;2023-08-06T10:45:51;98444.32;;;33.70;39.26
24996;BME280;13016;52.162;21.034;2023-08-06T10:51:51;98432.84;;;33.67;39.01
24996;BME280;13016;52.162;21.034;2023-08-06T10:57:53;98425.35;;;33.57;38.86
24996;BME280;13016;52.162;21.034;2023-08-06T11:03:53;98422.79;;;33.68;38.67
24996;BME280;13016;52.162;21.034;2023-08-06T11:10:00;98415.23;;;33.61;38.49
24996;BME280;13016;52.162;21.034;2023-08-06T11:16:00;98404.73;;;33.75;38.38
24996;BME280;13016;52.162;21.034;2023-08-06T11:22:00;98393.79;;;33.78;38.28
24996;BME280;13016;52.162;21.034;2023-08-06T11:28:01;98393.52;;;33.97;38.11
24996;BME280;13016;52.162;21.034;2023-08-06T11:34:01;98379.67;;;34.06;38.33
24996;BME280;13016;52.162;21.034;2023-08-06T11:40:08;98373.39;;;34.37;38.39
24996;BME280;13016;52.162;21.034;2023-08-06T11:46:08;98363.23;;;34.52;37.78
24996;BME280;13016;52.162;21.034;2023-08-06T11:52:15;98352.66;;;34.45;37.25
24996;BME280;13016;52.162;21.034;2023-08-06T11:58:17;98351.14;;;34.68;35.86
24996;BME280;13016;52.162;21.034;2023-08-06T12:04:17;98329.52;;;34.96;34.79
24996;BME280;13016;52.162;21.034;2023-08-06T12:10:18;98335.71;;;35.18;35.18
24996;BME280;13016;52.162;21.034;2023-08-06T12:16:19;98342.08;;;35.09;34.64
24996;BME280;13016;52.162;21.034;2023-08-06T12:22:19;98348.80;;;34.78;34.89
24996;BME280;13016;52.162;21.034;2023-08-06T12:28:19;98346.77;;;34.51;35.37
24996;BME280;13016;52.162;21.034;2023-08-06T12:34:20;98337.47;;;34.43;36.17
24996;BME280;13016;52.162;21.034;2023-08-06T12:40:20;98348.05;;;34.13;36.17
24996;BME280;13016;52.162;21.034;2023-08-06T12:46:20;98335.66;;;34.04;36.49
24996;BME280;13016;52.162;21.034;2023-08-06T12:52:21;98333.76;;;33.86;36.54
24996;BME280;13016;52.162;21.034;2023-08-06T12:58:21;98342.96;;;33.61;36.99
24996;BME280;13016;52.162;21.034;2023-08-06T13:04:21;98347.73;;;33.42;37.49
24996;BME280;13016;52.162;21.034;2023-08-06T13:10:21;98352.64;;;33.09;39.43
24996;BME280;13016;52.162;21.034;2023-08-06T13:16:21;98348.79;;;32.40;40.55
24996;BME280;13016;52.162;21.034;2023-08-06T13:22:22;98342.54;;;32.29;41.76
24996;BME280;13016;52.162;21.034;2023-08-06T13:28:22;98339.09;;;32.56;41.50
24996;BME280;13016;52.162;21.034;2023-08-06T13:34:22;98334.54;;;32.83;40.92
24996;BME280;13016;52.162;21.034;2023-08-06T13:40:22;98329.55;;;32.83;41.33
24996;BME280;13016;52.162;21.034;2023-08-06T13:46:22;98320.20;;;32.99;41.51
24996;BME280;13016;52.162;21.034;2023-08-06T13:52:24;98319.59;;;32.81;41.17
24996;BME280;13016;52.162;21.034;2023-08-06T13:58:25;98319.45;;;32.62;41.03
24996;BME280;13016;52.162;21.034;2023-08-06T14:04:25;98333.36;;;32.53;40.45
24996;BME280;13016;52.162;21.034;2023-08-06T14:10:25;98346.32;;;32.82;40.80
24996;BME280;13016;52.162;21.034;2023-08-06T14:16:25;98356.95;;;32.49;40.55
24996;BME280;13016;52.162;21.034;2023-08-06T14:22:26;98367.55;;;32.64;40.17
24996;BME280;13016;52.162;21.034;2023-08-06T14:28:26;98382.31;;;32.61;39.53
24996;BME280;13016;52.162;21.034;2023-08-06T14:34:28;98386.70;;;32.56;39.78
24996;BME280;13016;52.162;21.034;2023-08-06T14:40:28;98385.44;;;32.70;39.69
24996;BME280;13016;52.162;21.034;2023-08-06T14:46:28;98388.00;;;32.49;39.83
24996;BME280;13016;52.162;21.034;2023-08-06T14:52:28;98395.30;;;32.67;39.30
24996;BME280;13016;52.162;21.034;2023-08-06T14:58:28;98403.80;;;32.54;39.79
24996;BME280;13016;52.162;21.034;2023-08-06T15:04:29;98414.50;;;32.11;43.17
24996;BME280;13016;52.162;21.034;2023-08-06T15:10:29;98412.41;;;32.14;43.47
24996;BME280;13016;52.162;21.034;2023-08-06T15:16:29;98422.06;;;32.25;43.27
24996;BME280;13016;52.162;21.034;2023-08-06T15:22:29;98440.77;;;32.10;43.47
24996;BME280;13016;52.162;21.034;2023-08-06T15:28:30;98443.64;;;31.87;43.57
24996;BME280;13016;52.162;21.034;2023-08-06T15:34:30;98439.88;;;31.72;43.83
24996;BME280;13016;52.162;21.034;2023-08-06T15:40:30;98433.37;;;31.58;44.02
24996;BME280;13016;52.162;21.034;2023-08-06T15:46:30;98447.96;;;31.50;44.39
24996;BME280;13016;52.162;21.034;2023-08-06T15:52:30;98445.44;;;31.46;43.99
24996;BME280;13016;52.162;21.034;2023-08-06T15:58:31;98444.04;;;31.25;43.44
24996;BME280;13016;52.162;21.034;2023-08-06T16:04:31;98445.00;;;31.10;43.71
24996;BME280;13016;52.162;21.034;2023-08-06T16:10:32;98453.23;;;31.00;43.67
24996;BME280;13016;52.162;21.034;2023-08-06T16:16:32;98464.79;;;30.43;44.58
24996;BME280;13016;52.162;21.034;2023-08-06T16:22:32;98479.84;;;30.30;44.89
24996;BME280;13016;52.162;21.034;2023-08-06T16:28:33;98478.77;;;30.34;45.14
24996;BME280;13016;52.162;21.034;2023-08-06T16:34:33;98457.14;;;30.58;44.80
24996;BME280;13016;52.162;21.034;2023-08-06T16:40:33;98452.68;;;30.58;44.78
24996;BME280;13016;52.162;21.034;2023-08-06T16:46:33;98458.64;;;30.46;45.16
24996;BME280;13016;52.162;21.034;2023-08-06T16:52:33;98455.09;;;30.49;45.29
24996;BME280;13016;52.162;21.034;2023-08-06T16:58:34;98451.92;;;30.48;44.94
24996;BME280;13016;52.162;21.034;2023-08-06T17:04:34;98461.59;;;30.26;45.33
24996;BME280;13016;52.162;21.034;2023-08-06T17:10:34;98467.60;;;30.14;45.39
24996;BME280;13016;52.162;21.034;2023-08-06T17:16:35;98463.82;;;29.93;45.91
24996;BME280;13016;52.162;21.034;2023-08-06T17:22:35;98485.90;;;29.88;45.96
24996;BME280;13016;52.162;21.034;2023-08-06T17:28:35;98511.33;;;29.44;47.03
24996;BME280;13016;52.162;21.034;2023-08-06T17:34:35;98515.25;;;29.05;47.71
24996;BME280;13016;52.162;21.034;2023-08-06T17:40:36;98522.72;;;28.46;49.22
24996;BME280;13016;52.162;21.034;2023-08-06T17:46:36;98536.95;;;27.99;50.63
24996;BME280;13016;52.162;21.034;2023-08-06T17:52:36;98534.67;;;27.52;51.77
24996;BME280;13016;52.162;21.034;2023-08-06T17:58:36;98532.45;;;27.49;51.99
24996;BME280;13016;52.162;21.034;2023-08-06T18:04:37;98551.15;;;26.89;53.48
24996;BME280;13016;52.162;21.034;2023-08-06T18:10:37;98560.76;;;26.68;53.77
24996;BME280;13016;52.162;21.034;2023-08-06T18:16:37;98572.20;;;26.34;53.67
24996;BME280;13016;52.162;21.034;2023-08-06T18:22:37;98575.89;;;26.11;53.77
24996;BME280;13016;52.162;21.034;2023-08-06T18:28:38;98555.02;;;25.88;53.60
24996;BME280;13016;52.162;21.034;2023-08-06T18:34:38;98548.24;;;25.47;54.08
24996;BME280;13016;52.162;21.034;2023-08-06T18:40:38;98566.61;;;25.03;54.62
24996;BME280;13016;52.162;21.034;2023-08-06T18:46:38;98593.81;;;24.93;54.71
24996;BME280;13016;52.162;21.034;2023-08-06T18:52:38;98599.61;;;24.91;54.70
24996;BME280;13016;52.162;21.034;2023-08-06T18:58:39;98597.90;;;24.85;53.43
24996;BME280;13016;52.162;21.034;2023-08-06T19:04:39;98599.34;;;24.70;53.13
24996;BME280;13016;52.162;21.034;2023-08-06T19:10:39;98605.98;;;24.53;53.21
24996;BME280;13016;52.162;21.034;2023-08-06T19:16:40;98602.95;;;24.25;53.73
24996;BME280;13016;52.162;21.034;2023-08-06T19:22:40;98600.00;;;24.16;53.86
24996;BME280;13016;52.162;21.034;2023-08-06T19:28:40;98604.75;;;24.09;54.27
24996;BME280;13016;52.162;21.034;2023-08-06T19:34:40;98609.41;;;23.96;54.81
24996;BME280;13016;52.162;21.034;2023-08-06T19:40:40;98597.96;;;23.88;54.81
24996;BME280;13016;52.162;21.034;2023-08-06T19:46:41;98595.80;;;23.87;54.88
24996;BME280;13016;52.162;21.034;2023-08-06T19:52:41;98600.20;;;23.79;54.98
24996;BME280;13016;52.162;21.034;2023-08-06T19:58:41;98596.42;;;23.72;55.07
24996;BME280;13016;52.162;21.034;2023-08-06T20:04:41;98583.02;;;23.82;54.60
24996;BME280;13016;52.162;21.034;2023-08-06T20:10:45;98581.41;;;23.60;54.91
24996;BME280;13016;52.162;21.034;2023-08-06T20:16:46;98580.20;;;23.69;54.65
24996;BME280;13016;52.162;21.034;2023-08-06T20:22:46;98575.04;;;23.69;54.43
24996;BME280;13016;52.162;21.034;2023-08-06T20:28:46;98583.83;;;23.72;53.95
24996;BME280;13016;52.162;21.034;2023-08-06T20:34:46;98585.93;;;23.50;54.34
24996;BME280;13016;52.162;21.034;2023-08-06T20:40:47;98583.24;;;23.49;54.78
24996;BME280;13016;52.162;21.034;2023-08-06T20:46:47;98586.88;;;23.60;54.24
24996;BME280;13016;52.162;21.034;2023-08-06T20:52:47;98594.77;;;23.31;54.90
24996;BME280;13016;52.162;21.034;2023-08-06T20:58:47;98588.23;;;23.24;55.40
24996;BME280;13016;52.162;21.034;2023-08-06T21:04:48;98596.87;;;23.05;55.79
24996;BME280;13016;52.162;21.034;2023-08-06T21:10:48;98605.25;;;23.15;55.98
24996;BME280;13016;52.162;21.034;2023-08-06T21:16:48;98612.15;;;23.30;55.62
24996;BME280;13016;52.162;21.034;2023-08-06T21:22:48;98610.13;;;23.40;55.18
24996;BME280;13016;52.162;21.034;2023-08-06T21:28:48;98616.80;;;23.41;54.73
24996;BME280;13016;52.162;21.034;2023-08-06T21:34:49;98627.85;;;23.17;55.36
24996;BME280;13016;52.162;21.034;2023-08-06T21:40:49;98635.23;;;23.08;55.77
24996;BME280;13016;52.162;21.034;2023-08-06T21:46:49;98644.40;;;22.98;56.58
24996;BME280;13016;52.162;21.034;2023-08-06T21:52:49;98646.30;;;22.87;56.17
24996;BME280;13016;52.162;21.034;2023-08-06T21:58:50;98642.60;;;22.77;56.00
24996;BME280;13016;52.162;21.034;2023-08-06T22:04:50;98651.81;;;22.72;56.26
24996;BME280;13016;52.162;21.034;2023-08-06T22:10:51;98646.50;;;22.74;56.46
24996;BME280;13016;52.162;21.034;2023-08-06T22:16:51;98648.22;;;22.86;56.29
24996;BME280;13016;52.162;21.034;2023-08-06T22:22:51;98657.72;;;22.84;56.47
24996;BME280;13016;52.162;21.034;2023-08-06T22:28:51;98667.55;;;22.68;56.54
24996;BME280;13016;52.162;21.034;2023-08-06T22:34:51;98676.96;;;22.56;57.16
24996;BME280;13016;52.162;21.034;2023-08-06T22:40:52;98685.58;;;22.36;57.93
24996;BME280;13016;52.162;21.034;2023-08-06T22:46:52;98688.98;;;22.18;58.56
24996;BME280;13016;52.162;21.034;2023-08-06T22:52:52;98701.79;;;22.20;58.08
24996;BME280;13016;52.162;21.034;2023-08-06T22:58:52;98709.94;;;22.00;57.29
24996;BME280;13016;52.162;21.034;2023-08-06T23:04:53;98726.70;;;22.01;56.96
24996;BME280;13016;52.162;21.034;2023-08-06T23:10:53;98732.04;;;21.94;56.47
24996;BME280;13016;52.162;21.034;2023-08-06T23:16:53;98741.22;;;21.98;56.53
24996;BME280;13016;52.162;21.034;2023-08-06T23:22:53;98739.88;;;21.96;57.06
24996;BME280;13016;52.162;21.034;2023-08-06T23:28:53;98741.20;;;21.81;57.45
24996;BME280;13016;52.162;21.034;2023-08-06T23:34:54;98741.33;;;21.78;57.93
24996;BME280;13016;52.162;21.034;2023-08-06T23:40:54;98742.59;;;21.69;58.91
24996;BME280;13016;52.162;21.034;2023-08-06T23:46:54;98735.70;;;21.52;59.80
24996;BME280;13016;52.162;21.034;2023-08-06T23:52:54;98715.02;;;21.43;59.94
24996;BME280;13016;52.162;21.034;2023-08-06T23:58:54;98716.81;;;21.38;60.08
